Time;durP1;ratioP1;P1;durP2;ratioP2;P2;SDS_P1;SDS_P2;PMS_P1;PMS_P2;Temp;Humidity;BMP_temperature;BMP_pressure;BME280_temperature;BME280_humidity;BME280_pressure;Samples;Min_cycle;Max_cycle;Signal;HPM_P1;HPM_P2
2023/12/31 00:02:03;;;;;;;4.10;3.20;;;3.00;99.90;;;;;;5012864;28;20277;-80
2023/12/31 00:04:29;;;;;;;4.57;3.20;;;2.90;99.90;;;;;;5017282;28;20510;-81
2023/12/31 00:06:55;;;;;;;6.63;3.20;;;2.80;99.90;;;;;;5014710;28;20034;-83
2023/12/31 00:09:20;;;;;;;2.60;2.38;;;2.70;99.90;;;;;;5016035;28;20486;-80
2023/12/31 00:11:46;;;;;;;5.22;2.60;;;2.60;99.90;;;;;;5013165;28;20048;-79
2023/12/31 00:14:12;;;;;;;2.47;2.28;;;2.60;99.90;;;;;;5012551;28;20026;-80
2023/12/31 00:16:37;;;;;;;3.25;2.90;;;2.70;99.90;;;;;;5025777;28;20501;-79
2023/12/31 00:19:18;;;;;;;2.97;2.30;;;2.70;99.90;;;;;;5037834;28;20025;-77
2023/12/31 00:21:50;;;;;;;4.15;2.55;;;2.80;99.90;;;;;;5014833;28;20030;-80
2023/12/31 00:24:19;;;;;;;3.55;2.42;;;2.90;99.90;;;;;;4993394;28;20018;-79
2023/12/31 00:26:45;;;;;;;5.03;2.88;;;3.00;99.90;;;;;;5012399;28;20021;-81
2023/12/31 00:29:10;;;;;;;2.90;2.47;;;3.00;99.90;;;;;;5011237;28;20089;-81
2023/12/31 00:31:36;;;;;;;2.42;2.22;;;2.90;99.90;;;;;;5009636;28;20022;-81
2023/12/31 00:34:02;;;;;;;3.05;2.50;;;2.80;99.90;;;;;;5018292;28;20356;-81
2023/12/31 00:36:28;;;;;;;4.13;2.45;;;2.60;99.90;;;;;;5021031;28;20022;-80
2023/12/31 00:38:54;;;;;;;2.83;1.75;;;2.60;99.90;;;;;;5022285;28;20157;-80
2023/12/31 00:41:20;;;;;;;4.13;2.85;;;2.60;99.90;;;;;;5016229;28;20509;-81
2023/12/31 00:43:46;;;;;;;4.25;2.80;;;2.50;99.90;;;;;;5018730;28;20037;-81
2023/12/31 00:46:56;;;;;;;3.25;2.70;;;2.50;99.90;;;;;;5010912;28;20660;-80
2023/12/31 00:49:19;;;;;;;4.18;3.00;;;2.70;99.90;;;;;;5022066;28;20061;-76
2023/12/31 00:51:44;;;;;;;4.70;3.35;;;2.60;99.90;;;;;;5023559;28;20034;-82
2023/12/31 00:54:10;;;;;;;7.97;3.50;;;2.50;99.90;;;;;;5014818;28;20084;-82
2023/12/31 00:56:36;;;;;;;4.68;3.35;;;2.50;99.90;;;;;;5012919;28;20085;-81
2023/12/31 00:59:02;;;;;;;3.15;2.85;;;2.50;99.90;;;;;;5014343;28;20081;-78
2023/12/31 01:01:29;;;;;;;4.70;2.92;;;2.20;99.90;;;;;;5020155;28;20310;-77
2023/12/31 01:03:54;;;;;;;4.00;2.90;;;2.60;99.90;;;;;;5017339;28;20052;-81
2023/12/31 01:06:21;;;;;;;5.25;3.67;;;2.70;99.90;;;;;;5019827;28;20317;-79
2023/12/31 01:08:47;;;;;;;3.28;2.30;;;2.20;99.90;;;;;;5036242;28;20381;-76
2023/12/31 01:11:23;;;;;;;3.97;3.00;;;2.10;99.90;;;;;;5021131;28;20045;-79
2023/12/31 01:13:49;;;;;;;3.88;3.08;;;2.10;99.90;;;;;;5020791;28;20329;-80
2023/12/31 01:16:16;;;;;;;4.03;2.60;;;2.00;99.90;;;;;;5032527;28;20297;-80
2023/12/31 01:18:42;;;;;;;4.28;2.80;;;2.00;99.90;;;;;;5039139;28;20352;-78
2023/12/31 01:21:17;;;;;;;4.28;2.90;;;1.90;99.90;;;;;;5032441;28;20054;-78
2023/12/31 01:23:51;;;;;;;3.72;2.80;;;1.90;99.90;;;;;;5029141;28;20021;-77
2023/12/31 01:26:36;;;;;;;4.68;2.88;;;1.90;99.90;;;;;;5029085;28;20033;-75
2023/12/31 01:32:13;;;;;;;6.75;3.13;;;1.70;99.90;;;;;;5036611;28;20079;-79
2023/12/31 01:35:22;;;;;;;3.88;3.00;;;1.60;99.90;;;;;;5039245;28;20033;-75
2023/12/31 01:38:58;;;;;;;5.15;3.63;;;1.80;99.90;;;;;;5033232;28;20022;-76
2023/12/31 01:49:16;;;;;;;4.90;3.58;;;1.70;99.90;;;;;;4885619;29;20435;-78
2023/12/31 01:55:44;;;;;;;5.22;3.15;;;1.60;99.90;;;;;;4868561;29;20348;-77
2023/12/31 02:47:34;;;;;;;5.03;4.07;;;1.30;99.90;;;;;;4716827;30;20072;-79
2023/12/31 03:28:16;;;;;;;3.45;3.00;;;1.20;99.90;;;;;;4760518;30;20310;-80
2023/12/31 03:34:48;;;;;;;6.53;3.60;;;1.20;99.90;;;;;;4908202;29;20550;-82
2023/12/31 03:37:15;;;;;;;6.65;4.45;;;1.40;99.90;;;;;;4917786;29;20024;-76
2023/12/31 03:39:41;;;;;;;7.78;3.83;;;1.50;99.90;;;;;;4972763;28;20042;-75
2023/12/31 03:46:13;;;;;;;5.28;3.80;;;1.90;99.90;;;;;;5036015;28;20033;-78
2023/12/31 03:53:42;;;;;;;;;;;;;;;;;;;;;
2023/12/31 03:55:32;;;;;;;5.97;3.20;;;1.90;99.90;;;;;;4940644;28;20038;-83
2023/12/31 03:57:58;;;;;;;4.95;3.33;;;2.00;99.90;;;;;;5023507;28;20072;-80
2023/12/31 04:11:07;;;;;;;;;;;;;;;;;;;;;
2023/12/31 04:17:33;;;;;;;3.97;2.72;;;1.60;99.90;;;;;;4895179;29;20408;-79
2023/12/31 04:24:18;;;;;;;5.68;3.83;;;1.70;99.90;;;;;;4972575;29;20127;-80
2023/12/31 04:26:53;;;;;;;8.23;3.97;;;1.80;99.90;;;;;;4956586;28;20223;-77
2023/12/31 04:32:50;;;;;;;5.45;3.40;;;2.00;99.90;;;;;;5026988;28;20060;-77
2023/12/31 04:49:56;;;;;;;5.35;3.45;;;1.80;99.90;;;;;;4951384;29;20037;-82
2023/12/31 04:56:34;;;;;;;9.63;4.47;;;1.80;99.90;;;;;;5006109;28;20025;-82
2023/12/31 05:17:04;;;;;;;10.32;6.60;;;1.80;99.90;;;;;;4664199;30;20057;-75
2023/12/31 05:40:50;;;;;;;12.85;7.20;;;1.80;99.90;;;;;;4666125;30;20602;-80
2023/12/31 05:43:48;;;;;;;;;;;;;;;;;;;;;
2023/12/31 05:47:11;;;;;;;10.95;6.10;;;2.00;99.90;;;;;;4698803;30;20112;-75
2023/12/31 05:49:53;;;;;;;10.68;6.25;;;2.00;99.90;;;;;;4761168;30;20127;-78
2023/12/31 05:53:27;;;;;;;10.10;5.90;;;2.00;99.90;;;;;;4745382;30;20053;-83
2023/12/31 06:03:25;;;;;;;8.77;5.43;;;2.00;99.90;;;;;;4712360;30;20049;-75
2023/12/31 06:26:32;;;;;;;7.82;4.45;;;1.80;99.90;;;;;;4840328;29;20029;-78
2023/12/31 06:28:57;;;;;;;11.68;5.28;;;1.80;99.90;;;;;;4840332;29;20026;-77
2023/12/31 06:31:24;;;;;;;10.65;5.00;;;1.60;99.90;;;;;;4862647;29;20049;-76
2023/12/31 06:33:51;;;;;;;14.75;6.20;;;1.70;99.90;;;;;;4984952;28;20053;-76
2023/12/31 06:44:08;;;;;;;11.68;5.70;;;1.70;99.90;;;;;;4932092;29;20061;-80
2023/12/31 06:53:15;;;;;;;7.68;4.72;;;1.40;99.90;;;;;;4866733;29;20060;-76
2023/12/31 06:55:41;;;;;;;6.95;4.03;;;1.30;99.90;;;;;;4847696;29;20042;-80
2023/12/31 06:58:07;;;;;;;8.55;4.45;;;1.30;99.90;;;;;;4945676;28;20062;-82
2023/12/31 07:00:41;;;;;;;7.05;4.45;;;1.30;99.90;;;;;;4998790;28;20037;-81
2023/12/31 07:06:22;;;;;;;8.43;5.05;;;1.20;99.90;;;;;;4993293;28;20108;-82
2023/12/31 07:08:50;;;;;;;10.20;5.75;;;1.10;99.90;;;;;;4997129;28;20022;-79
2023/12/31 07:11:16;;;;;;;7.07;4.07;;;1.40;99.90;;;;;;4995102;28;20073;-75
2023/12/31 07:13:43;;;;;;;8.45;5.28;;;0.90;99.90;;;;;;4995082;28;20293;-78
2023/12/31 07:16:35;;;;;;;9.45;5.57;;;0.90;99.90;;;;;;4996202;28;20028;-75
2023/12/31 07:19:00;;;;;;;12.13;5.72;;;0.90;99.90;;;;;;4991938;28;20290;-80
2023/12/31 07:21:35;;;;;;;12.43;6.25;;;0.90;99.90;;;;;;4998986;28;20159;-80
2023/12/31 07:24:01;;;;;;;11.93;5.68;;;0.90;99.90;;;;;;4999735;28;20463;-82
2023/12/31 07:26:31;;;;;;;9.00;5.22;;;0.90;99.90;;;;;;4995443;28;20106;-81
2023/12/31 07:31:43;;;;;;;7.45;4.70;;;0.90;99.90;;;;;;5000682;28;20101;-78
2023/12/31 07:34:18;;;;;;;10.13;5.75;;;1.00;99.90;;;;;;5031826;28;20497;-83
2023/12/31 07:36:44;;;;;;;8.52;4.75;;;1.10;99.90;;;;;;5026728;28;20030;-75
2023/12/31 07:39:13;;;;;;;11.50;6.30;;;1.20;99.90;;;;;;5024627;28;20073;-75
2023/12/31 07:41:39;;;;;;;13.70;6.60;;;1.30;99.90;;;;;;5018723;28;20053;-77
2023/12/31 07:44:05;;;;;;;11.70;5.72;;;1.50;99.90;;;;;;5020461;28;20100;-75
2023/12/31 07:46:31;;;;;;;9.57;6.18;;;1.50;99.90;;;;;;5026920;28;20022;-75
2023/12/31 07:48:57;;;;;;;10.10;5.47;;;1.60;99.90;;;;;;5022769;28;20029;-75
2023/12/31 07:51:23;;;;;;;16.65;5.15;;;1.60;99.90;;;;;;5019302;28;20025;-85
2023/12/31 07:53:48;;;;;;;11.90;5.80;;;1.50;99.90;;;;;;5025069;28;20030;-75
2023/12/31 07:56:14;;;;;;;11.48;6.03;;;1.60;99.90;;;;;;5028894;28;20018;-75
2023/12/31 07:58:40;;;;;;;8.43;5.13;;;1.70;99.90;;;;;;5026882;28;20081;-78
2023/12/31 08:01:05;;;;;;;12.30;5.82;;;1.80;99.90;;;;;;5022001;28;20022;-74
2023/12/31 08:03:31;;;;;;;10.35;6.25;;;1.80;99.90;;;;;;5026629;28;20033;-78
2023/12/31 08:05:57;;;;;;;11.70;6.30;;;1.80;99.90;;;;;;5026949;28;20030;-75
2023/12/31 08:08:24;;;;;;;9.43;5.72;;;2.10;99.90;;;;;;5026459;28;20063;-75
2023/12/31 08:14:23;;;;;;;3.50;1.55;;;4.00;99.90;;;;;;5129019;27;20906;-76
2023/12/31 08:16:49;;;;;;;3.08;1.48;;;6.60;99.90;;;;;;5091625;28;20024;-78
2023/12/31 08:19:16;;;;;;;1.75;1.40;;;9.20;99.90;;;;;;5108172;28;20128;-78
2023/12/31 08:21:42;;;;;;;1.88;1.45;;;10.10;99.90;;;;;;5089550;28;20020;-76
2023/12/31 08:24:08;;;;;;;5.35;3.08;;;10.60;95.00;;;;;;5107817;28;20018;-76
2023/12/31 08:26:36;;;;;;;1.65;1.40;;;10.90;93.30;;;;;;5107654;28;20028;-82
2023/12/31 08:29:02;;;;;;;1.50;1.40;;;11.20;90.80;;;;;;5107911;28;20027;-76
2023/12/31 08:31:28;;;;;;;1.40;1.30;;;11.60;89.10;;;;;;5107705;28;20047;-74
2023/12/31 08:33:54;;;;;;;2.53;1.55;;;11.70;86.10;;;;;;5107549;28;20495;-75
2023/12/31 08:36:19;;;;;;;3.60;2.05;;;11.70;85.70;;;;;;5107568;28;20099;-77
2023/12/31 08:38:45;;;;;;;1.23;1.10;;;11.80;83.40;;;;;;5107269;28;20036;-77
2023/12/31 08:41:11;;;;;;;1.38;0.90;;;11.80;84.80;;;;;;5106853;28;20024;-79
2023/12/31 08:43:36;;;;;;;1.92;1.35;;;11.90;83.40;;;;;;5107082;28;20618;-80
2023/12/31 08:46:03;;;;;;;1.52;1.42;;;12.00;80.70;;;;;;5107178;28;20264;-80
2023/12/31 08:48:29;;;;;;;1.70;1.30;;;12.10;81.50;;;;;;5107998;28;20083;-79
2023/12/31 08:50:55;;;;;;;1.75;1.23;;;12.20;79.60;;;;;;5088897;28;20154;-75
2023/12/31 08:53:20;;;;;;;1.88;1.40;;;12.30;79.00;;;;;;5107394;28;20042;-75
2023/12/31 08:55:48;;;;;;;1.80;1.33;;;12.10;82.50;;;;;;5101387;28;20028;-76
2023/12/31 08:58:14;;;;;;;4.00;1.13;;;12.10;81.60;;;;;;5088849;28;20215;-77
2023/12/31 09:00:40;;;;;;;3.30;1.27;;;12.20;79.70;;;;;;5082331;28;20034;-77
2023/12/31 09:03:05;;;;;;;1.20;1.10;;;12.40;78.20;;;;;;5087694;28;20122;-76
2023/12/31 09:05:34;;;;;;;2.90;1.23;;;12.60;76.70;;;;;;5091919;28;20520;-76
2023/12/31 09:07:59;;;;;;;6.30;1.60;;;12.60;78.20;;;;;;5088671;28;20112;-78
2023/12/31 09:10:25;;;;;;;1.45;1.35;;;12.70;78.80;;;;;;5085286;28;20070;-79
2023/12/31 09:12:51;;;;;;;0.95;0.95;;;12.60;79.10;;;;;;5079616;28;20510;-76
2023/12/31 09:15:17;;;;;;;2.75;1.65;;;12.60;77.40;;;;;;5084551;28;20029;-77
2023/12/31 09:17:43;;;;;;;1.20;1.10;;;12.70;77.70;;;;;;5099329;28;20028;-77
2023/12/31 09:20:09;;;;;;;2.58;1.25;;;12.70;79.30;;;;;;5104884;28;20499;-78
2023/12/31 09:22:35;;;;;;;1.10;1.10;;;12.80;76.50;;;;;;5103562;28;20032;-76
2023/12/31 09:25:01;;;;;;;1.35;1.00;;;12.70;78.00;;;;;;5090535;28;20354;-76
2023/12/31 09:27:30;;;;;;;1.35;1.25;;;12.70;78.90;;;;;;5071792;28;20028;-77
2023/12/31 09:30:42;;;;;;;1.33;1.20;;;12.70;78.60;;;;;;5070705;28;20059;-79
2023/12/31 09:34:10;;;;;;;1.40;1.20;;;12.90;79.10;;;;;;5053524;28;20050;-76
2023/12/31 09:36:46;;;;;;;;;;;12.90;80.80;;;;;;5079320;28;20082;-85
2023/12/31 09:39:13;;;;;;;2.85;1.27;;;13.00;79.40;;;;;;5082765;28;19904;-76
2023/12/31 09:41:39;;;;;;;3.22;1.60;;;13.00;79.20;;;;;;5091918;28;20580;-79
2023/12/31 09:44:54;;;;;;;2.15;2.00;;;12.90;77.90;;;;;;5091005;28;20035;-81
2023/12/31 09:47:00;;;;;;;2.08;1.45;;;12.80;80.60;;;;;;5085879;28;20039;-77
2023/12/31 09:49:29;;;;;;;1.50;1.40;;;12.60;79.40;;;;;;5090627;28;20024;-76
2023/12/31 09:51:56;;;;;;;1.25;1.20;;;12.60;80.20;;;;;;5085873;28;20099;-79
2023/12/31 09:54:22;;;;;;;1.60;1.50;;;12.60;78.40;;;;;;5075211;28;20491;-77
2023/12/31 09:56:50;;;;;;;1.80;1.70;;;12.60;78.30;;;;;;5071281;28;20088;-79
2023/12/31 09:59:17;;;;;;;1.45;1.20;;;12.60;77.60;;;;;;5069924;28;20052;-77
2023/12/31 10:01:47;;;;;;;1.70;1.60;;;12.70;77.20;;;;;;5070581;28;20029;-76
2023/12/31 10:04:14;;;;;;;2.00;1.40;;;12.80;76.70;;;;;;5071476;28;20055;-76
2023/12/31 10:06:40;;;;;;;1.55;1.30;;;12.80;76.70;;;;;;5071698;28;20056;-79
2023/12/31 10:09:07;;;;;;;1.63;1.20;;;12.90;75.60;;;;;;5071250;28;20606;-80
2023/12/31 10:11:35;;;;;;;2.75;1.58;;;13.00;76.70;;;;;;5090558;28;20121;-76
2023/12/31 10:14:01;;;;;;;2.20;1.15;;;13.00;75.50;;;;;;5073589;28;20401;-76
2023/12/31 10:16:36;;;;;;;1.48;1.00;;;13.00;75.00;;;;;;5053030;28;20029;-78
2023/12/31 10:19:03;;;;;;;1.48;1.38;;;13.00;74.50;;;;;;5071321;28;20029;-77
2023/12/31 10:21:32;;;;;;;1.42;1.27;;;13.00;75.30;;;;;;5052744;28;20027;-77
2023/12/31 10:24:36;;;;;;;1.70;0.98;;;12.90;76.80;;;;;;5070294;28;20020;-76
2023/12/31 10:27:11;;;;;;;0.80;0.40;;;12.10;81.80;;;;;;4970102;28;20073;-76
2023/12/31 10:29:53;;;;;;;3.15;0.43;;;9.60;98.70;;;;;;4969107;28;20037;-75
2023/12/31 10:32:20;;;;;;;0.20;0.20;;;7.90;99.90;;;;;;5016185;28;20036;-75
2023/12/31 10:35:02;;;;;;;0.45;0.45;;;7.00;99.90;;;;;;5050807;28;20517;-74
2023/12/31 10:37:28;;;;;;;0.50;0.45;;;6.60;99.90;;;;;;5031818;28;20481;-75
2023/12/31 10:39:54;;;;;;;0.50;0.28;;;6.40;99.90;;;;;;5050259;28;20068;-75
2023/12/31 10:42:21;;;;;;;0.43;0.38;;;6.30;99.90;;;;;;5032980;28;20492;-74
2023/12/31 10:44:53;;;;;;;1.35;0.73;;;6.20;99.90;;;;;;5033870;28;20025;-74
2023/12/31 10:47:22;;;;;;;2.88;1.17;;;6.00;99.90;;;;;;5051926;28;20082;-74
2023/12/31 10:49:49;;;;;;;0.40;0.40;;;5.90;99.90;;;;;;5051498;28;20021;-75
2023/12/31 10:52:16;;;;;;;1.40;0.70;;;5.80;99.90;;;;;;5032490;28;20025;-74
2023/12/31 10:54:46;;;;;;;0.30;0.30;;;5.70;99.90;;;;;;5050422;28;20017;-74
2023/12/31 10:57:13;;;;;;;0.00;0.00;;;5.60;99.90;;;;;;5056605;28;20036;-75
2023/12/31 10:59:43;;;;;;;0.22;0.20;;;5.60;99.90;;;;;;5050024;28;20055;-74
2023/12/31 11:02:18;;;;;;;1.65;0.20;;;5.50;99.90;;;;;;5032112;28;20029;-75
2023/12/31 11:04:45;;;;;;;0.30;0.20;;;5.60;99.90;;;;;;5050080;28;20017;-76
2023/12/31 11:07:14;;;;;;;0.10;0.10;;;5.60;99.90;;;;;;5031806;28;20025;-74
2023/12/31 11:09:42;;;;;;;0.17;0.17;;;5.60;99.90;;;;;;5048030;28;20028;-74
2023/12/31 11:12:08;;;;;;;1.77;0.30;;;5.60;99.90;;;;;;5031106;28;20113;-74
2023/12/31 11:14:37;;;;;;;0.20;0.20;;;5.50;99.90;;;;;;5049849;28;20112;-76
2023/12/31 11:17:22;;;;;;;0.10;0.10;;;5.50;99.90;;;;;;5032555;28;20087;-74
2023/12/31 11:19:59;;;;;;;0.10;0.10;;;5.40;99.90;;;;;;5031719;28;20536;-74
2023/12/31 11:22:55;;;;;;;0.20;0.20;;;5.40;99.90;;;;;;5050032;28;20033;-74
2023/12/31 11:25:21;;;;;;;0.10;0.10;;;5.50;99.90;;;;;;4981680;28;20511;-74
2023/12/31 11:27:51;;;;;;;0.20;0.20;;;5.50;99.90;;;;;;5031728;28;20035;-73
2023/12/31 11:30:55;;;;;;;0.25;0.20;;;5.40;99.90;;;;;;5049602;28;20103;-75
2023/12/31 11:33:32;;;;;;;0.73;0.40;;;5.50;99.90;;;;;;5033348;28;20041;-75
2023/12/31 11:36:03;;;;;;;0.10;0.10;;;5.40;99.90;;;;;;5046012;28;20237;-74
2023/12/31 11:39:04;;;;;;;0.10;0.10;;;5.50;99.90;;;;;;5059402;28;20021;-74
2023/12/31 11:41:39;;;;;;;0.08;0.08;;;5.40;99.90;;;;;;5057115;28;20020;-76
2023/12/31 11:44:10;;;;;;;0.10;0.10;;;5.40;99.90;;;;;;5043241;28;20040;-75
2023/12/31 11:46:42;;;;;;;0.10;0.10;;;5.40;99.90;;;;;;5058643;28;20032;-74
2023/12/31 11:49:10;;;;;;;0.10;0.10;;;5.40;99.90;;;;;;5057708;28;20055;-74
2023/12/31 11:51:55;;;;;;;0.00;0.00;;;5.40;99.90;;;;;;5042437;28;20024;-74
2023/12/31 11:57:39;;;;;;;0.17;0.17;;;5.30;99.90;;;;;;4958458;28;20459;-73
2023/12/31 12:00:32;;;;;;;0.10;0.10;;;5.30;99.90;;;;;;4958318;28;20034;-74
2023/12/31 12:03:02;;;;;;;0.03;0.03;;;5.30;99.90;;;;;;5041986;28;20021;-74
2023/12/31 12:05:28;;;;;;;0.10;0.10;;;5.30;99.90;;;;;;5066565;28;20032;-75
2023/12/31 12:08:07;;;;;;;0.10;0.00;;;5.30;99.90;;;;;;5070742;28;20021;-74
2023/12/31 12:11:18;;;;;;;0.10;0.10;;;5.30;99.90;;;;;;5045198;28;20043;-74
2023/12/31 12:13:37;;;;;;;0.10;0.10;;;5.40;99.90;;;;;;5057137;28;20048;-74
2023/12/31 12:16:04;;;;;;;0.10;0.10;;;5.40;99.90;;;;;;5059165;28;20029;-74
2023/12/31 12:19:05;;;;;;;0.25;0.10;;;5.30;99.90;;;;;;5040536;28;20029;-75
2023/12/31 12:21:31;;;;;;;0.38;0.20;;;5.30;99.90;;;;;;5032681;28;20025;-74
2023/12/31 12:24:09;;;;;;;0.70;0.47;;;5.30;99.90;;;;;;5057544;28;20269;-74
2023/12/31 12:26:39;;;;;;;6.68;2.08;;;5.30;99.90;;;;;;5057535;28;20060;-73
2023/12/31 12:29:27;;;;;;;7.07;1.67;;;5.30;99.90;;;;;;5057143;28;20066;-75
2023/12/31 12:35:06;;;;;;;3.42;1.02;;;5.30;99.90;;;;;;5024309;28;20100;-74
2023/12/31 12:38:08;;;;;;;1.08;0.50;;;5.20;99.90;;;;;;5060983;28;20223;-74
2023/12/31 12:40:55;;;;;;;0.10;0.10;;;5.20;99.90;;;;;;5074355;28;20036;-76
2023/12/31 12:44:26;;;;;;;0.10;0.10;;;5.20;99.90;;;;;;5058607;28;20096;-74
2023/12/31 12:47:22;;;;;;;0.47;0.45;;;5.20;99.90;;;;;;5040676;28;20029;-75
2023/12/31 12:49:48;;;;;;;0.20;0.20;;;5.20;99.90;;;;;;4979794;28;20086;-74
2023/12/31 12:52:17;;;;;;;0.43;0.20;;;5.30;99.90;;;;;;5056504;28;20017;-77
2023/12/31 12:54:43;;;;;;;1.88;0.30;;;5.20;99.90;;;;;;5052145;28;20033;-75
2023/12/31 13:00:47;;;;;;;0.10;0.10;;;5.20;99.90;;;;;;4996818;28;20041;-76
2023/12/31 13:03:13;;;;;;;0.08;0.08;;;5.20;99.90;;;;;;5046531;28;20029;-76
2023/12/31 13:06:12;;;;;;;0.22;0.20;;;5.20;99.90;;;;;;5056993;28;20519;-76
2023/12/31 13:08:51;;;;;;;0.85;0.22;;;5.20;99.90;;;;;;4994967;28;20045;-75
2023/12/31 13:15:35;;;;;;;0.08;0.08;;;5.20;99.90;;;;;;5053154;28;20084;-77
2023/12/31 13:18:13;;;;;;;0.10;0.10;;;5.20;99.90;;;;;;4994169;28;20026;-76
2023/12/31 13:21:21;;;;;;;0.80;0.10;;;5.10;99.90;;;;;;4999066;28;20030;-77
2023/12/31 13:23:48;;;;;;;0.10;0.10;;;5.10;99.90;;;;;;5042335;28;20232;-77
2023/12/31 13:26:17;;;;;;;0.10;0.10;;;5.20;99.90;;;;;;5073380;28;20036;-75
2023/12/31 13:31:56;;;;;;;0.13;0.13;;;5.20;99.90;;;;;;5043069;28;20540;-76
2023/12/31 13:34:30;;;;;;;0.20;0.20;;;5.20;99.90;;;;;;5082095;28;20024;-77
2023/12/31 13:37:17;;;;;;;0.88;0.10;;;5.20;99.90;;;;;;5062110;28;20312;-78
2023/12/31 13:39:43;;;;;;;0.10;0.10;;;5.20;99.90;;;;;;5080665;28;20058;-78
2023/12/31 13:42:09;;;;;;;0.03;0.00;;;5.20;99.90;;;;;;5060085;28;20056;-77
2023/12/31 13:44:36;;;;;;;0.10;0.10;;;5.20;99.90;;;;;;5082571;28;20043;-78
2023/12/31 13:47:02;;;;;;;0.00;0.00;;;5.30;99.90;;;;;;5079053;28;20179;-77
2023/12/31 13:49:27;;;;;;;0.50;0.50;;;5.30;99.90;;;;;;5059719;28;20017;-75
2023/12/31 13:51:53;;;;;;;1.23;0.60;;;5.30;99.90;;;;;;5053702;28;20040;-76
2023/12/31 13:54:20;;;;;;;0.20;0.20;;;5.30;99.90;;;;;;5057116;28;20033;-76
2023/12/31 13:56:47;;;;;;;0.20;0.20;;;5.30;99.90;;;;;;5038598;28;20028;-75
2023/12/31 13:59:13;;;;;;;0.30;0.30;;;5.20;99.90;;;;;;5034499;28;20044;-75
2023/12/31 14:01:39;;;;;;;2.85;0.52;;;5.30;99.90;;;;;;5059486;28;20028;-75
2023/12/31 14:04:06;;;;;;;1.35;0.70;;;5.30;99.90;;;;;;5059170;28;20123;-75
2023/12/31 14:06:33;;;;;;;0.65;0.65;;;5.30;99.90;;;;;;5074273;28;20096;-75
2023/12/31 14:09:00;;;;;;;1.13;1.05;;;5.30;99.90;;;;;;5047880;28;20024;-75
2023/12/31 14:11:26;;;;;;;0.88;0.80;;;5.30;99.90;;;;;;5062609;28;20036;-75
2023/12/31 14:13:51;;;;;;;3.60;1.33;;;5.30;99.90;;;;;;5063102;28;20057;-75
2023/12/31 14:16:17;;;;;;;2.35;0.90;;;5.20;99.90;;;;;;5063631;28;20048;-78
2023/12/31 14:18:43;;;;;;;9.52;3.72;;;5.20;99.90;;;;;;5059989;28;20032;-77
2023/12/31 14:21:09;;;;;;;1.70;0.80;;;5.20;99.90;;;;;;5061338;28;20048;-76
2023/12/31 14:23:34;;;;;;;0.50;0.30;;;5.30;99.90;;;;;;5061144;28;20074;-74
2023/12/31 14:26:00;;;;;;;2.60;0.60;;;5.20;99.90;;;;;;5059521;28;20025;-75
2023/12/31 14:28:26;;;;;;;0.45;0.40;;;5.30;99.90;;;;;;5059804;28;20031;-74
2023/12/31 14:30:52;;;;;;;0.30;0.20;;;5.30;99.90;;;;;;5062322;28;20108;-75
2023/12/31 14:33:17;;;;;;;0.60;0.57;;;5.30;99.90;;;;;;5061930;28;20341;-75
2023/12/31 14:35:43;;;;;;;0.22;0.22;;;5.30;99.90;;;;;;5044375;28;20200;-74
2023/12/31 14:38:09;;;;;;;0.20;0.20;;;5.20;99.90;;;;;;5062063;28;20025;-76
2023/12/31 14:40:35;;;;;;;0.75;0.40;;;5.20;99.90;;;;;;5044043;28;20051;-74
2023/12/31 14:43:01;;;;;;;0.50;0.28;;;5.30;99.90;;;;;;5060054;28;20049;-75
2023/12/31 14:45:29;;;;;;;0.20;0.20;;;5.20;99.90;;;;;;5033299;28;20508;-75
2023/12/31 14:47:55;;;;;;;0.20;0.20;;;5.20;99.90;;;;;;5052167;28;20044;-75
2023/12/31 14:50:21;;;;;;;0.80;0.75;;;5.30;99.90;;;;;;5054403;28;20028;-75
2023/12/31 14:52:47;;;;;;;0.40;0.22;;;5.30;99.90;;;;;;5058379;28;20036;-74
2023/12/31 14:55:14;;;;;;;0.08;0.08;;;5.30;99.90;;;;;;5058992;28;20197;-75
2023/12/31 14:57:42;;;;;;;0.20;0.20;;;5.30;99.90;;;;;;5077871;28;20560;-75
2023/12/31 15:00:08;;;;;;;0.47;0.17;;;5.30;99.90;;;;;;5088506;28;20008;-75
2023/12/31 15:02:34;;;;;;;0.20;0.20;;;5.30;99.90;;;;;;5100118;28;20028;-75
2023/12/31 15:05:00;;;;;;;0.20;0.20;;;5.30;99.90;;;;;;5086041;28;20405;-75
2023/12/31 15:07:26;;;;;;;0.10;0.10;;;5.30;99.90;;;;;;5078235;28;20028;-74
2023/12/31 15:09:58;;;;;;;1.10;0.50;;;5.30;99.90;;;;;;5071504;28;20025;-76
2023/12/31 15:12:58;;;;;;;44.80;21.40;;;5.30;99.90;;;;;;5075732;28;20155;-75
2023/12/31 15:23:31;;;;;;;;;;;;;;;;;;;;;
2023/12/31 15:25:53;;;;;;;0.10;0.10;;;5.50;99.90;;;;;;4976185;28;20022;-74
2023/12/31 15:28:25;;;;;;;0.60;0.40;;;5.60;99.90;;;;;;4999615;28;20218;-76
2023/12/31 15:31:27;;;;;;;;;;;;;;;;;;;;;
2023/12/31 15:34:39;;;;;;;0.10;0.10;;;5.60;99.90;;;;;;5077189;28;20107;-75
2023/12/31 15:37:47;;;;;;;0.30;0.28;;;5.70;99.90;;;;;;4994419;28;20037;-75
2023/12/31 15:40:38;;;;;;;1.02;0.60;;;5.60;99.90;;;;;;5052011;28;20037;-75
2023/12/31 15:46:37;;;;;;;0.23;0.23;;;5.60;99.90;;;;;;4981120;28;20439;-75
2023/12/31 15:49:03;;;;;;;0.10;0.10;;;5.60;99.90;;;;;;4978310;28;20280;-76
2023/12/31 15:51:29;;;;;;;1.42;0.30;;;5.50;99.90;;;;;;4996287;28;20049;-75
2023/12/31 15:53:55;;;;;;;0.82;0.17;;;5.50;99.90;;;;;;5017362;28;20084;-75
2023/12/31 15:56:21;;;;;;;0.90;0.50;;;6.00;99.90;;;;;;5059516;28;20017;-77
2023/12/31 15:58:48;;;;;;;0.20;0.20;;;5.50;99.90;;;;;;5061010;28;20050;-75
2023/12/31 16:01:23;;;;;;;0.50;0.50;;;5.50;99.90;;;;;;5076439;28;20035;-74
2023/12/31 16:03:49;;;;;;;0.30;0.30;;;5.50;99.90;;;;;;5076560;28;20305;-75
2023/12/31 16:06:29;;;;;;;0.25;0.20;;;5.60;99.90;;;;;;5057955;28;20032;-75
2023/12/31 16:09:09;;;;;;;0.20;0.20;;;5.60;99.90;;;;;;5056387;28;20040;-75
2023/12/31 16:11:39;;;;;;;1.58;0.47;;;5.70;99.90;;;;;;5075862;28;20410;-76
2023/12/31 16:14:05;;;;;;;0.30;0.30;;;5.60;99.90;;;;;;5071534;28;20079;-75
2023/12/31 16:16:31;;;;;;;0.50;0.50;;;5.60;99.90;;;;;;5072283;28;20097;-76
2023/12/31 16:19:00;;;;;;;2.00;0.68;;;5.60;99.90;;;;;;5097298;28;20028;-75
2023/12/31 16:21:26;;;;;;;;;;;5.60;99.90;;;;;;5087602;28;20021;-76
2023/12/31 16:23:52;;;;;;;0.30;0.30;;;5.60;99.90;;;;;;5079629;28;20219;-76
2023/12/31 16:26:17;;;;;;;0.35;0.25;;;5.60;99.90;;;;;;5067973;28;20028;-75
2023/12/31 16:28:43;;;;;;;0.30;0.30;;;5.50;99.90;;;;;;5077769;28;20040;-75
2023/12/31 16:31:12;;;;;;;0.20;0.20;;;5.50;99.90;;;;;;5078947;28;20052;-74
2023/12/31 16:33:37;;;;;;;0.60;0.60;;;5.60;99.90;;;;;;5071753;28;20317;-77
2023/12/31 16:36:03;;;;;;;0.35;0.35;;;5.60;99.90;;;;;;5082233;28;20028;-79
2023/12/31 16:38:29;;;;;;;1.48;0.40;;;5.50;99.90;;;;;;5092446;28;20035;-74
2023/12/31 16:40:54;;;;;;;0.40;0.38;;;5.50;99.90;;;;;;5076505;28;20021;-78
2023/12/31 16:43:22;;;;;;;0.93;0.85;;;5.50;99.90;;;;;;5079093;28;20079;-77
2023/12/31 16:45:49;;;;;;;1.35;0.50;;;5.40;99.90;;;;;;5081020;28;20453;-79
2023/12/31 16:48:15;;;;;;;0.52;0.50;;;5.40;99.90;;;;;;5074798;28;20021;-74
2023/12/31 16:50:41;;;;;;;2.33;1.67;;;5.40;99.90;;;;;;5080819;28;20031;-74
2023/12/31 16:53:08;;;;;;;1.63;1.50;;;5.40;99.90;;;;;;5080839;28;20039;-78
2023/12/31 16:55:33;;;;;;;4.80;4.32;;;5.40;99.90;;;;;;5068875;28;20305;-76
2023/12/31 16:57:59;;;;;;;13.02;9.02;;;5.40;99.90;;;;;;5067520;28;20207;-75
2023/12/31 17:00:43;;;;;;;45.42;28.17;;;5.50;99.90;;;;;;5044470;28;20320;-76
2023/12/31 17:06:54;;;;;;;16.08;6.22;;;5.60;99.90;;;;;;5009986;28;20052;-76
2023/12/31 17:09:43;;;;;;;6.07;4.15;;;5.60;99.90;;;;;;5059002;28;20163;-79
2023/12/31 17:15:21;;;;;;;4.38;3.70;;;5.70;99.90;;;;;;5069684;28;20059;-76
2023/12/31 17:18:05;;;;;;;1.00;1.00;;;5.70;99.90;;;;;;5058621;28;20076;-77
2023/12/31 17:20:31;;;;;;;1.48;0.73;;;5.70;99.90;;;;;;5059207;28;20021;-77
2023/12/31 17:22:57;;;;;;;5.05;4.57;;;5.70;99.90;;;;;;5050915;28;20021;-74
2023/12/31 17:25:23;;;;;;;0.60;0.47;;;5.60;99.90;;;;;;5071048;28;20020;-75
2023/12/31 17:28:07;;;;;;;0.65;0.20;;;5.60;99.90;;;;;;5054637;28;20107;-76
2023/12/31 17:30:41;;;;;;;1.15;0.52;;;5.50;99.90;;;;;;5081302;28;20029;-75
2023/12/31 17:33:48;;;;;;;0.30;0.30;;;5.40;99.90;;;;;;5079313;28;20040;-76
2023/12/31 17:36:33;;;;;;;0.30;0.30;;;5.30;99.90;;;;;;5052145;28;20033;-75
2023/12/31 17:39:09;;;;;;;0.25;0.20;;;5.30;99.90;;;;;;5035467;28;20021;-76
2023/12/31 17:42:00;;;;;;;;;;;;;;;;;;;;;
2023/12/31 17:44:29;;;;;;;1.02;0.30;;;5.20;99.90;;;;;;5058031;28;20024;-80
2023/12/31 17:47:08;;;;;;;0.32;0.32;;;5.10;99.90;;;;;;5073228;28;20071;-76
2023/12/31 17:49:36;;;;;;;0.40;0.40;;;5.10;99.90;;;;;;5054486;28;20037;-77
2023/12/31 17:52:03;;;;;;;0.20;0.20;;;5.10;99.90;;;;;;5058467;28;20045;-79
2023/12/31 17:54:38;;;;;;;0.15;0.15;;;5.10;99.90;;;;;;5071563;28;20044;-76
2023/12/31 17:57:37;;;;;;;0.13;0.10;;;5.20;99.90;;;;;;5065245;28;20020;-75
2023/12/31 18:00:24;;;;;;;0.10;0.10;;;5.10;99.90;;;;;;5076651;28;20032;-78
2023/12/31 18:03:13;;;;;;;0.55;0.30;;;5.10;99.90;;;;;;5086896;28;20344;-75
2023/12/31 18:05:51;;;;;;;0.10;0.10;;;5.20;99.90;;;;;;5097651;28;20367;-77
2023/12/31 18:09:15;;;;;;;0.38;0.20;;;5.30;99.90;;;;;;5070789;28;20533;-76
2023/12/31 18:12:17;;;;;;;0.10;0.10;;;5.30;99.90;;;;;;5026702;28;20032;-76
2023/12/31 18:17:39;;;;;;;0.20;0.20;;;5.30;99.90;;;;;;5061742;28;20347;-75